KOMA

Eppley Airfield

Airport
ICAO code
KOMA
Summary
ICAO Region
NAM
ICAO Territory
Location

Omaha, Nebraska,

Coordinates
41° 18' 11" N , 95° 53' 45" W
KCC
Airport LOS
Parallel Runway Operation
Metar
Observation
KOMA 070852Z 35006KT 10SM SCT140 07/00 A3047 RMK AO2 SLP319 T00720000 53013
Station
Omaha, Eppley Airfield
Date/Time
2022-10-07 08:52:00
Wind direction
350°
Wind speed
06 kts
Lowest cloud amount
scattered clouds
Temperature
7.2°C
Dew point
0°C
Humidity
60%
Weather condition
n/a

Description

Eppley Airfield is a public use airport located 5.0 km northeast of the central business district of Omaha, in Douglas County, Nebraska.

Climatology

Humid continental climate (Köppen climate classification Dfa) - characterized by four seasons: cold, windy, snowy winters, mild springs, hot, humid summers, and crisp and relatively short autumns. Precipitation reaches its lowest in January and February and peaks in summer and latter half of spring.

Runways

Designator Length Width Surface Rops
18/36 2485 46 PEM Yes/Yes
14L/32R 2591 46 CON Yes/Yes
14R/32L 2896 46 PEM Yes/Yes

Airport map

Aerial View

SKYbrary Partners:

Safety knowledge contributed by: